Time;durP1;ratioP1;P1;durP2;ratioP2;P2;SDS_P1;SDS_P2;PMS_P1;PMS_P2;Temp;Humidity;BMP_temperature;BMP_pressure;BME280_temperature;BME280_humidity;BME280_pressure;Samples;Min_cycle;Max_cycle;Signal;HPM_P1;HPM_P2
2023/11/17 00:00:52;;;;;;;8.00;7.20;;;9.60;99.90;;;;;;5059157;28;20445;-71
2023/11/17 00:03:18;;;;;;;11.73;6.60;;;9.60;99.90;;;;;;5060345;28;20482;-71
2023/11/17 00:05:44;;;;;;;7.60;6.33;;;9.60;99.90;;;;;;5058490;28;20839;-71
2023/11/17 00:08:09;;;;;;;9.50;7.00;;;9.80;99.90;;;;;;5055749;28;20198;-71
2023/11/17 00:10:35;;;;;;;9.50;6.23;;;9.80;99.90;;;;;;5058421;28;20175;-71
2023/11/17 00:13:00;;;;;;;10.00;6.27;;;9.60;99.90;;;;;;5056456;28;20230;-71
2023/11/17 00:15:28;;;;;;;8.13;6.00;;;9.60;99.90;;;;;;5057863;28;20187;-71
2023/11/17 00:17:53;;;;;;;9.47;6.57;;;9.60;99.90;;;;;;5052986;28;20183;-71
2023/11/17 00:20:19;;;;;;;8.70;7.13;;;9.60;99.90;;;;;;5058326;28;20570;-71
2023/11/17 00:22:47;;;;;;;10.17;6.20;;;9.60;99.90;;;;;;5058603;28;21022;-71
2023/11/17 00:25:14;;;;;;;8.23;6.07;;;9.60;99.90;;;;;;5055199;28;20509;-71
2023/11/17 00:27:40;;;;;;;9.17;5.73;;;9.60;99.90;;;;;;5058192;28;20433;-71
2023/11/17 00:30:07;;;;;;;8.73;6.30;;;9.60;99.90;;;;;;5058924;28;20813;-72
2023/11/17 00:32:33;;;;;;;7.27;5.60;;;9.60;99.90;;;;;;5053611;28;20497;-71
2023/11/17 00:34:59;;;;;;;7.40;6.40;;;9.70;99.90;;;;;;5054524;28;20453;-71
2023/11/17 00:37:26;;;;;;;6.63;5.50;;;9.70;99.90;;;;;;5059906;28;20537;-71
2023/11/17 00:39:55;;;;;;;7.90;5.47;;;9.70;99.90;;;;;;5055995;28;20534;-71
2023/11/17 00:42:21;;;;;;;6.70;4.73;;;9.70;99.90;;;;;;5058203;28;20460;-71
2023/11/17 00:44:46;;;;;;;5.43;3.70;;;9.80;99.90;;;;;;5060072;28;20414;-72
2023/11/17 00:47:12;;;;;;;5.47;4.50;;;9.70;99.90;;;;;;5054159;28;20430;-71
2023/11/17 00:49:39;;;;;;;4.30;3.40;;;9.70;99.90;;;;;;5055389;28;20715;-71
2023/11/17 00:52:05;;;;;;;6.60;3.90;;;9.70;99.90;;;;;;5060557;28;20776;-72
2023/11/17 00:54:36;;;;;;;5.40;3.30;;;9.70;99.90;;;;;;5057217;28;20520;-72
2023/11/17 00:57:03;;;;;;;7.23;3.90;;;9.70;99.90;;;;;;5053864;28;20433;-71
2023/11/17 00:59:29;;;;;;;7.53;3.73;;;9.70;99.90;;;;;;5057134;28;20820;-71
2023/11/17 01:01:55;;;;;;;5.50;4.03;;;9.70;99.90;;;;;;5058379;28;20560;-70
2023/11/17 01:04:21;;;;;;;7.40;3.90;;;9.70;99.90;;;;;;5058249;28;20540;-70
2023/11/17 01:06:53;;;;;;;5.00;3.73;;;9.80;99.90;;;;;;5058366;28;20228;-71
2023/11/17 01:09:19;;;;;;;5.70;3.70;;;9.70;99.90;;;;;;5056301;28;20523;-72
2023/11/17 01:11:45;;;;;;;4.87;3.40;;;9.60;99.90;;;;;;5057556;28;20422;-70
2023/11/17 01:14:11;;;;;;;3.80;2.90;;;9.70;99.90;;;;;;5058766;28;20460;-71
2023/11/17 01:16:37;;;;;;;4.80;3.27;;;9.70;99.90;;;;;;5057586;28;20176;-71
2023/11/17 01:19:03;;;;;;;3.20;2.70;;;9.80;99.90;;;;;;5054993;28;20679;-71
2023/11/17 01:21:29;;;;;;;4.07;2.70;;;9.80;99.90;;;;;;5057038;28;20497;-71
2023/11/17 01:23:55;;;;;;;7.70;3.30;;;9.80;99.90;;;;;;5060166;28;20209;-71
2023/11/17 01:26:21;;;;;;;4.40;2.60;;;9.80;99.90;;;;;;5055203;28;20437;-71
2023/11/17 01:28:46;;;;;;;3.47;2.37;;;9.80;99.90;;;;;;5049454;28;20280;-71
2023/11/17 01:31:12;;;;;;;4.30;2.70;;;9.80;99.90;;;;;;5057506;28;20211;-72
2023/11/17 01:33:38;;;;;;;4.47;2.77;;;9.70;99.90;;;;;;5060578;28;20231;-72
2023/11/17 01:36:05;;;;;;;3.20;2.30;;;9.80;99.90;;;;;;5058539;28;20833;-72
2023/11/17 01:38:32;;;;;;;4.30;2.50;;;9.80;99.90;;;;;;5058071;28;20171;-72
2023/11/17 01:40:58;;;;;;;3.53;2.37;;;9.90;99.90;;;;;;5052757;28;20955;-72
2023/11/17 01:43:24;;;;;;;3.47;2.40;;;9.90;99.90;;;;;;5057562;28;20484;-72
2023/11/17 01:45:52;;;;;;;3.43;2.57;;;9.90;99.90;;;;;;5062989;28;20504;-72
2023/11/17 01:48:18;;;;;;;3.30;2.07;;;9.80;99.90;;;;;;5058623;28;20464;-72
2023/11/17 01:50:44;;;;;;;3.90;2.53;;;9.90;99.90;;;;;;5059197;28;20575;-72
2023/11/17 01:53:11;;;;;;;5.80;2.37;;;10.00;99.90;;;;;;5060434;28;20464;-72
2023/11/17 01:55:36;;;;;;;4.07;2.23;;;9.90;99.90;;;;;;5048374;28;20521;-71
2023/11/17 01:58:02;;;;;;;2.70;2.00;;;9.70;99.90;;;;;;5062925;28;20512;-71
2023/11/17 02:00:28;;;;;;;3.90;2.27;;;9.60;99.90;;;;;;5038724;28;20649;-72
2023/11/17 02:02:55;;;;;;;3.23;2.30;;;9.70;99.90;;;;;;5060189;28;20229;-71
2023/11/17 02:05:24;;;;;;;2.63;1.90;;;9.70;99.90;;;;;;5057871;28;20187;-72
2023/11/17 02:08:08;;;;;;;2.57;1.90;;;9.60;99.90;;;;;;5042280;28;20427;-71
2023/11/17 02:11:14;;;;;;;3.83;2.53;;;9.80;99.90;;;;;;5058724;28;20422;-71
2023/11/17 02:13:56;;;;;;;2.27;1.80;;;9.70;99.90;;;;;;5058514;28;20457;-71
2023/11/17 02:16:24;;;;;;;2.77;2.00;;;9.60;99.90;;;;;;5060716;28;20433;-71
2023/11/17 02:18:54;;;;;;;3.80;1.90;;;9.50;99.90;;;;;;5059372;28;20429;-72
2023/11/17 02:21:29;;;;;;;2.40;2.00;;;9.60;99.90;;;;;;5065559;28;20458;-72
2023/11/17 02:23:56;;;;;;;5.47;2.30;;;9.60;99.90;;;;;;5062223;28;20922;-71
2023/11/17 02:26:37;;;;;;;2.43;1.90;;;9.50;99.90;;;;;;5058478;28;20485;-71
2023/11/17 02:29:13;;;;;;;3.27;2.20;;;9.50;99.90;;;;;;5059007;28;20433;-72
2023/11/17 02:31:40;;;;;;;3.60;2.20;;;9.60;99.90;;;;;;5058222;28;20449;-70
2023/11/17 02:34:08;;;;;;;2.50;2.13;;;9.50;99.90;;;;;;5058488;28;20457;-71
2023/11/17 02:36:35;;;;;;;2.70;2.00;;;9.40;99.90;;;;;;5057804;28;20433;-71
2023/11/17 02:39:25;;;;;;;3.80;2.07;;;9.30;99.90;;;;;;5064341;28;20421;-71
2023/11/17 02:41:57;;;;;;;2.80;1.80;;;9.20;99.90;;;;;;5061936;28;20552;-72
2023/11/17 02:44:33;;;;;;;3.40;2.10;;;9.30;99.90;;;;;;5062787;28;20429;-71
2023/11/17 02:47:03;;;;;;;4.33;2.20;;;9.30;99.90;;;;;;5058262;28;20775;-71
2023/11/17 02:49:40;;;;;;;2.57;2.00;;;9.30;99.90;;;;;;5062334;28;20413;-70
2023/11/17 02:52:15;;;;;;;2.70;1.80;;;9.40;99.90;;;;;;5058068;28;20413;-72
2023/11/17 02:54:40;;;;;;;4.30;2.10;;;9.30;99.90;;;;;;5057024;28;20463;-71
2023/11/17 02:57:07;;;;;;;3.30;2.10;;;9.40;99.90;;;;;;5063694;28;20795;-71
2023/11/17 02:59:37;;;;;;;4.87;2.23;;;9.40;99.90;;;;;;5055919;28;20187;-71
2023/11/17 03:02:05;;;;;;;6.00;2.83;;;9.40;99.90;;;;;;5061522;28;21260;-71
2023/11/17 03:04:31;;;;;;;2.47;1.83;;;9.40;99.90;;;;;;5062312;28;20491;-71
2023/11/17 03:07:01;;;;;;;3.53;2.20;;;9.40;99.90;;;;;;5060964;28;20433;-71
2023/11/17 03:09:28;;;;;;;6.50;2.50;;;9.30;99.90;;;;;;5058138;28;20434;-72
2023/11/17 03:11:54;;;;;;;4.30;2.57;;;9.30;99.90;;;;;;5062546;28;20442;-71
2023/11/17 03:14:24;;;;;;;3.83;2.47;;;9.40;99.90;;;;;;5063309;28;20903;-70
2023/11/17 03:16:58;;;;;;;3.20;2.43;;;9.40;99.90;;;;;;5062536;28;20192;-70
2023/11/17 03:19:25;;;;;;;3.80;2.30;;;9.30;99.90;;;;;;5065118;28;20594;-71
2023/11/17 03:21:54;;;;;;;4.20;2.40;;;9.30;99.90;;;;;;5063898;28;20540;-71
2023/11/17 03:24:23;;;;;;;3.47;2.73;;;9.30;99.90;;;;;;5064082;28;20429;-71
2023/11/17 03:26:52;;;;;;;2.90;2.13;;;9.30;99.90;;;;;;5065292;28;20550;-71
2023/11/17 03:29:19;;;;;;;4.20;2.53;;;9.30;99.90;;;;;;5061249;28;20419;-71
2023/11/17 03:31:50;;;;;;;6.80;2.77;;;9.30;99.90;;;;;;5063919;28;20421;-70
2023/11/17 03:34:29;;;;;;;3.80;2.67;;;9.40;99.90;;;;;;5056860;28;20481;-70
2023/11/17 03:36:57;;;;;;;3.60;2.70;;;9.40;99.90;;;;;;5060634;28;20417;-70
2023/11/17 03:39:24;;;;;;;4.80;2.50;;;9.30;99.90;;;;;;5063754;28;20899;-70
2023/11/17 03:41:50;;;;;;;6.63;3.60;;;9.30;99.90;;;;;;5056079;28;20454;-71
2023/11/17 03:44:16;;;;;;;5.37;2.80;;;9.40;99.90;;;;;;5061498;28;20452;-72
2023/11/17 03:46:46;;;;;;;4.80;3.10;;;9.40;99.90;;;;;;5058754;28;20421;-71
2023/11/17 03:49:12;;;;;;;5.00;3.80;;;9.20;99.90;;;;;;5061229;28;20448;-71
2023/11/17 03:51:37;;;;;;;4.07;3.27;;;9.30;99.90;;;;;;5059342;28;20990;-71
2023/11/17 03:54:05;;;;;;;6.03;3.47;;;9.30;99.90;;;;;;5063081;28;20457;-71
2023/11/17 03:56:31;;;;;;;6.00;4.00;;;9.30;99.90;;;;;;5057356;28;20668;-71
2023/11/17 03:58:57;;;;;;;4.30;3.20;;;9.30;99.90;;;;;;5056629;28;20438;-71
2023/11/17 04:01:25;;;;;;;4.27;3.40;;;9.30;99.90;;;;;;5062256;28;20498;-71
2023/11/17 04:03:51;;;;;;;4.70;3.07;;;9.10;99.90;;;;;;5059927;28;20263;-71
2023/11/17 04:06:16;;;;;;;4.43;3.40;;;9.10;99.90;;;;;;5059990;28;21521;-71
2023/11/17 04:08:42;;;;;;;5.00;4.40;;;9.10;99.90;;;;;;5060273;28;20207;-71
2023/11/17 04:11:13;;;;;;;4.67;3.63;;;9.10;99.90;;;;;;5064438;28;20536;-71
2023/11/17 04:13:41;;;;;;;5.60;3.10;;;9.10;99.90;;;;;;5061970;28;20191;-71
2023/11/17 04:16:08;;;;;;;4.80;3.30;;;9.10;99.90;;;;;;5062446;28;21272;-71
2023/11/17 04:18:34;;;;;;;6.60;3.60;;;9.00;99.90;;;;;;5063067;28;20443;-71
2023/11/17 04:20:59;;;;;;;6.83;2.70;;;9.10;99.90;;;;;;5059822;28;20425;-71
2023/11/17 04:23:25;;;;;;;4.83;3.40;;;9.20;99.90;;;;;;5062953;28;20677;-71
2023/11/17 04:25:51;;;;;;;3.90;3.07;;;9.20;99.90;;;;;;5064193;28;20175;-71
2023/11/17 04:28:17;;;;;;;5.03;3.40;;;9.10;99.90;;;;;;5062399;28;20468;-72
2023/11/17 04:30:43;;;;;;;5.77;3.70;;;9.00;99.90;;;;;;5058541;28;20188;-71
2023/11/17 04:33:09;;;;;;;7.90;3.60;;;9.00;99.90;;;;;;5070684;22;20993;-71
2023/11/17 04:35:34;;;;;;;4.80;3.60;;;9.00;99.90;;;;;;5019284;28;20192;-71
2023/11/17 04:38:00;;;;;;;5.67;3.90;;;9.10;99.90;;;;;;5019507;28;20310;-71
2023/11/17 04:40:27;;;;;;;5.40;3.83;;;9.00;99.90;;;;;;5023607;28;20558;-72
2023/11/17 04:42:52;;;;;;;5.07;3.70;;;9.00;99.90;;;;;;5029784;28;20292;-72
2023/11/17 04:45:20;;;;;;;5.90;3.60;;;9.00;99.90;;;;;;5013696;28;20942;-71
2023/11/17 04:47:46;;;;;;;5.80;3.93;;;9.00;99.90;;;;;;5016697;28;20269;-71
2023/11/17 04:50:11;;;;;;;5.77;4.33;;;8.90;99.90;;;;;;5011465;28;20408;-71
2023/11/17 04:52:37;;;;;;;7.07;3.83;;;9.00;99.90;;;;;;5014848;28;20432;-72
2023/11/17 04:55:05;;;;;;;5.53;4.20;;;9.10;99.90;;;;;;5012801;28;20192;-72
2023/11/17 04:57:32;;;;;;;7.13;3.80;;;9.00;99.90;;;;;;5020559;28;20173;-72
2023/11/17 04:59:59;;;;;;;4.93;4.03;;;9.00;99.90;;;;;;5019483;28;20498;-72
2023/11/17 05:02:25;;;;;;;6.10;4.27;;;9.00;99.90;;;;;;5018226;28;20514;-72
2023/11/17 05:04:51;;;;;;;4.60;4.00;;;9.10;99.90;;;;;;5018658;28;20435;-72
2023/11/17 05:07:17;;;;;;;4.67;3.63;;;9.10;99.90;;;;;;5027234;28;20416;-72
2023/11/17 05:09:42;;;;;;;7.10;4.50;;;9.10;99.90;;;;;;5013634;28;20427;-72
2023/11/17 05:12:09;;;;;;;5.17;3.60;;;9.20;99.90;;;;;;5026220;28;20770;-72
2023/11/17 05:14:36;;;;;;;4.20;3.50;;;9.20;99.90;;;;;;5020598;28;20381;-72
2023/11/17 05:17:06;;;;;;;4.67;3.77;;;9.20;99.90;;;;;;5011168;28;20482;-71
2023/11/17 05:19:34;;;;;;;4.80;3.67;;;9.10;99.90;;;;;;5016911;28;20425;-72
2023/11/17 05:22:03;;;;;;;5.30;3.53;;;9.10;99.90;;;;;;5010350;28;20462;-72
2023/11/17 05:24:28;;;;;;;9.73;4.20;;;9.10;99.90;;;;;;5022069;28;20434;-71
2023/11/17 05:26:54;;;;;;;6.60;4.17;;;9.20;99.90;;;;;;5008189;28;20443;-72
2023/11/17 05:29:20;;;;;;;5.80;3.90;;;9.10;99.90;;;;;;5028530;28;20218;-72
2023/11/17 05:31:45;;;;;;;5.60;4.20;;;9.10;99.90;;;;;;5010216;28;20276;-72
2023/11/17 05:34:13;;;;;;;5.47;4.03;;;9.00;99.90;;;;;;5022133;28;20299;-73
2023/11/17 05:36:39;;;;;;;5.00;4.43;;;9.00;99.90;;;;;;5020808;28;20210;-72
2023/11/17 05:39:09;;;;;;;7.03;3.97;;;9.10;99.90;;;;;;5014120;28;20441;-72
2023/11/17 05:41:34;;;;;;;4.87;3.37;;;9.10;99.90;;;;;;5018506;28;20465;-72
2023/11/17 05:44:00;;;;;;;9.13;4.70;;;9.10;99.90;;;;;;5018695;28;21112;-73
2023/11/17 05:46:26;;;;;;;5.83;4.50;;;9.00;99.90;;;;;;5020914;28;20175;-72
2023/11/17 05:48:53;;;;;;;7.50;4.47;;;9.10;99.90;;;;;;5015444;28;20181;-72
2023/11/17 05:51:18;;;;;;;5.40;4.20;;;9.10;99.90;;;;;;5012925;28;20181;-72
2023/11/17 05:53:44;;;;;;;7.40;4.50;;;9.10;99.90;;;;;;5011745;28;20447;-73
2023/11/17 05:56:11;;;;;;;6.50;5.07;;;9.20;99.90;;;;;;5025731;28;20214;-72
2023/11/17 05:58:37;;;;;;;7.70;4.47;;;9.10;99.90;;;;;;5023022;28;20176;-72
2023/11/17 06:01:03;;;;;;;8.47;4.30;;;9.10;99.90;;;;;;5020482;28;20510;-72
2023/11/17 06:03:29;;;;;;;5.90;4.30;;;9.10;99.90;;;;;;5021134;28;20547;-72
2023/11/17 06:05:58;;;;;;;6.10;4.47;;;9.00;99.90;;;;;;5018301;28;20939;-72
2023/11/17 06:08:23;;;;;;;7.33;4.67;;;9.10;99.90;;;;;;5013070;28;20264;-72
2023/11/17 06:10:49;;;;;;;5.20;4.10;;;9.10;99.90;;;;;;5020849;28;20540;-72
2023/11/17 06:13:15;;;;;;;7.50;4.63;;;9.00;99.90;;;;;;5028195;28;20699;-72
2023/11/17 06:15:41;;;;;;;5.20;4.20;;;9.00;99.90;;;;;;5031113;28;20185;-72
2023/11/17 06:18:07;;;;;;;5.43;4.37;;;9.00;99.90;;;;;;5028044;28;20447;-72
2023/11/17 06:20:36;;;;;;;6.60;4.97;;;9.00;99.90;;;;;;5014891;28;20211;-72
2023/11/17 06:23:01;;;;;;;5.80;4.97;;;9.10;99.90;;;;;;5018221;28;20756;-72
2023/11/17 06:25:27;;;;;;;7.90;5.67;;;9.00;99.90;;;;;;5020024;28;20446;-72
2023/11/17 06:27:53;;;;;;;8.33;6.10;;;9.10;99.90;;;;;;5021060;28;20215;-71
2023/11/17 06:30:18;;;;;;;11.47;5.23;;;9.10;99.90;;;;;;5011342;28;20584;-71
2023/11/17 06:32:44;;;;;;;4.97;4.43;;;9.10;99.90;;;;;;5011326;28;20225;-72
2023/11/17 06:35:10;;;;;;;6.87;4.73;;;9.20;99.90;;;;;;5013232;28;20325;-72
2023/11/17 06:37:37;;;;;;;10.57;6.03;;;9.10;99.90;;;;;;5014695;28;20216;-72
2023/11/17 06:40:07;;;;;;;10.20;6.23;;;9.20;99.90;;;;;;5011043;28;20475;-72
2023/11/17 06:42:32;;;;;;;8.40;5.70;;;9.10;99.90;;;;;;5012988;28;20550;-72
2023/11/17 06:44:58;;;;;;;8.63;5.70;;;9.10;99.90;;;;;;5017937;28;20507;-72
2023/11/17 06:47:23;;;;;;;7.40;5.43;;;9.00;99.90;;;;;;5012257;28;20196;-72
2023/11/17 06:49:49;;;;;;;7.27;5.33;;;9.00;99.90;;;;;;5015554;28;20197;-72
2023/11/17 06:52:15;;;;;;;8.60;5.23;;;9.00;99.90;;;;;;5014336;28;20269;-72
2023/11/17 06:54:41;;;;;;;8.60;5.30;;;8.90;99.90;;;;;;5019520;28;20514;-72
2023/11/17 06:57:06;;;;;;;10.00;5.83;;;9.00;99.90;;;;;;5024002;28;21428;-72
2023/11/17 06:59:32;;;;;;;6.10;5.20;;;8.90;99.90;;;;;;5031103;28;20299;-72
2023/11/17 07:01:58;;;;;;;9.43;6.00;;;9.00;99.90;;;;;;5019923;28;20264;-72
2023/11/17 07:04:24;;;;;;;9.70;6.07;;;9.00;99.90;;;;;;5026740;28;20693;-73
2023/11/17 07:06:49;;;;;;;10.23;6.30;;;8.90;99.90;;;;;;5023294;28;20418;-72
2023/11/17 07:11:44;;;;;;;8.60;6.43;;;9.10;99.90;;;;;;5018157;28;20200;-72
2023/11/17 07:14:11;;;;;;;9.03;6.40;;;9.00;99.90;;;;;;5029065;28;21216;-71
2023/11/17 07:16:41;;;;;;;7.43;6.20;;;9.00;99.90;;;;;;5019599;28;20504;-71
2023/11/17 07:19:08;;;;;;;9.40;5.83;;;9.00;99.90;;;;;;5017818;28;20440;-71
2023/11/17 07:21:35;;;;;;;8.70;6.23;;;9.10;99.90;;;;;;5014530;28;20875;-71
2023/11/17 07:24:05;;;;;;;9.37;6.47;;;9.00;99.90;;;;;;5016381;28;20440;-71
2023/11/17 07:26:34;;;;;;;9.63;6.30;;;9.00;99.90;;;;;;5018012;28;20474;-71
2023/11/17 07:29:00;;;;;;;8.83;5.40;;;9.00;99.90;;;;;;5014691;28;20572;-72
2023/11/17 07:31:27;;;;;;;11.43;5.20;;;9.10;99.90;;;;;;5022572;28;20423;-72
2023/11/17 07:33:56;;;;;;;6.90;5.60;;;9.20;99.90;;;;;;5015436;28;20486;-72
2023/11/17 07:36:22;;;;;;;11.43;6.47;;;9.10;99.90;;;;;;5019271;28;20447;-72
2023/11/17 07:38:51;;;;;;;9.30;6.43;;;9.10;99.90;;;;;;5013045;28;20784;-72
2023/11/17 07:41:19;;;;;;;7.70;5.87;;;9.10;99.90;;;;;;5023644;28;20809;-71
2023/11/17 07:43:45;;;;;;;9.80;6.30;;;9.10;99.90;;;;;;5020149;28;20442;-70
2023/11/17 07:46:11;;;;;;;7.10;5.67;;;9.20;99.90;;;;;;5018935;28;20507;-71
2023/11/17 07:48:37;;;;;;;6.60;5.67;;;9.10;99.90;;;;;;5019831;28;20419;-71
2023/11/17 07:51:03;;;;;;;10.40;5.40;;;9.10;99.90;;;;;;5017941;28;20416;-71
2023/11/17 07:53:29;;;;;;;11.33;5.60;;;9.10;99.90;;;;;;5017287;28;20201;-71
2023/11/17 07:55:55;;;;;;;8.20;6.17;;;9.20;99.90;;;;;;5014918;28;20430;-72
2023/11/17 07:58:20;;;;;;;7.80;5.63;;;9.30;99.90;;;;;;5016493;28;20264;-70
2023/11/17 08:00:54;;;;;;;6.53;5.63;;;9.20;99.90;;;;;;5018073;28;20456;-71
2023/11/17 08:03:21;;;;;;;5.63;5.03;;;9.20;99.90;;;;;;5023781;28;20311;-71
2023/11/17 08:05:46;;;;;;;6.20;4.93;;;9.10;99.90;;;;;;5017854;28;20416;-70
2023/11/17 08:08:13;;;;;;;6.30;4.67;;;9.10;99.90;;;;;;5014094;28;20443;-71
2023/11/17 08:10:39;;;;;;;7.00;4.80;;;9.20;99.90;;;;;;5014595;28;20281;-71
2023/11/17 08:13:04;;;;;;;7.10;5.03;;;9.10;99.90;;;;;;5014696;28;20459;-70
2023/11/17 08:15:31;;;;;;;6.50;5.17;;;9.20;99.90;;;;;;5012429;28;20184;-70
2023/11/17 08:17:57;;;;;;;12.90;5.33;;;9.10;99.90;;;;;;5016354;28;20193;-70
2023/11/17 08:20:22;;;;;;;8.47;5.27;;;9.20;99.90;;;;;;5015538;28;20451;-70
2023/11/17 08:22:48;;;;;;;10.40;5.33;;;9.20;99.90;;;;;;5018029;28;20564;-70
2023/11/17 08:25:17;;;;;;;6.53;4.50;;;9.30;99.90;;;;;;5017602;28;20205;-71
2023/11/17 08:27:43;;;;;;;6.83;5.07;;;9.30;99.90;;;;;;5015337;28;20515;-72
2023/11/17 08:30:10;;;;;;;6.50;4.97;;;9.30;99.90;;;;;;5021985;28;20550;-72
2023/11/17 08:32:43;;;;;;;6.60;4.57;;;9.30;99.90;;;;;;5017715;28;20236;-70
2023/11/17 08:35:08;;;;;;;6.47;5.00;;;9.30;99.90;;;;;;5014726;28;20794;-70
2023/11/17 08:37:35;;;;;;;7.60;4.90;;;9.20;99.90;;;;;;5016941;28;20446;-69
2023/11/17 08:40:08;;;;;;;9.07;4.37;;;9.30;99.90;;;;;;5017391;28;20271;-70
2023/11/17 08:42:34;;;;;;;6.60;4.73;;;9.30;99.90;;;;;;5012353;28;20861;-70
2023/11/17 08:45:07;;;;;;;7.30;5.00;;;9.30;99.90;;;;;;5008388;28;20427;-70
2023/11/17 08:47:43;;;;;;;8.73;4.60;;;9.40;99.90;;;;;;5015912;28;20407;-70
2023/11/17 08:50:10;;;;;;;7.23;4.47;;;9.40;99.90;;;;;;5016506;28;20477;-70
2023/11/17 08:52:39;;;;;;;7.70;5.07;;;9.30;99.90;;;;;;5018534;28;20480;-69
2023/11/17 08:55:04;;;;;;;5.67;4.07;;;9.40;99.90;;;;;;5011756;28;20897;-71
2023/11/17 08:57:33;;;;;;;6.70;4.73;;;9.40;99.90;;;;;;5018286;28;20423;-69
2023/11/17 08:59:59;;;;;;;6.40;4.50;;;9.50;99.90;;;;;;5011365;28;20192;-69
2023/11/17 09:02:29;;;;;;;7.60;4.73;;;9.40;99.90;;;;;;5014356;28;20485;-70
2023/11/17 09:04:55;;;;;;;5.93;4.40;;;9.50;99.90;;;;;;5020117;28;20835;-69
2023/11/17 09:07:21;;;;;;;7.20;4.37;;;9.40;99.90;;;;;;5015292;28;20454;-69
2023/11/17 09:09:47;;;;;;;5.03;3.97;;;9.40;99.90;;;;;;5020089;28;20263;-71
2023/11/17 09:12:17;;;;;;;9.10;4.73;;;9.40;99.90;;;;;;5019220;28;20616;-70
2023/11/17 09:14:43;;;;;;;6.87;4.93;;;9.30;99.90;;;;;;5014968;28;20563;-71
2023/11/17 09:17:09;;;;;;;7.17;5.07;;;9.30;99.90;;;;;;5014168;28;20431;-71
2023/11/17 09:19:36;;;;;;;6.87;5.00;;;9.30;99.90;;;;;;5020834;28;20176;-70
2023/11/17 09:22:02;;;;;;;6.60;3.60;;;9.40;99.90;;;;;;5016385;28;20467;-70
2023/11/17 09:24:28;;;;;;;6.40;4.63;;;9.40;99.90;;;;;;5011589;28;20474;-70
2023/11/17 09:26:53;;;;;;;5.30;3.77;;;9.40;99.90;;;;;;5014869;28;20435;-71
2023/11/17 09:29:19;;;;;;;6.80;4.50;;;9.40;99.90;;;;;;5021288;28;20176;-72
2023/11/17 09:31:45;;;;;;;8.93;4.43;;;9.40;99.90;;;;;;5018640;28;20337;-70
2023/11/17 09:34:10;;;;;;;5.37;4.40;;;9.40;99.90;;;;;;5015077;28;20392;-72
2023/11/17 09:36:40;;;;;;;6.67;4.57;;;9.40;99.90;;;;;;5018178;28;20188;-71
2023/11/17 09:39:09;;;;;;;5.33;3.77;;;9.40;99.90;;;;;;5021100;28;20180;-70
2023/11/17 09:41:38;;;;;;;6.80;5.20;;;9.40;99.90;;;;;;5015455;28;20460;-70
2023/11/17 09:44:06;;;;;;;6.00;4.47;;;9.30;99.90;;;;;;5014340;28;20442;-71
2023/11/17 09:46:42;;;;;;;7.00;4.80;;;9.30;99.90;;;;;;5018547;28;20426;-71
2023/11/17 09:49:09;;;;;;;7.10;5.10;;;9.30;99.90;;;;;;5017965;28;20798;-71
2023/11/17 09:51:35;;;;;;;7.10;5.17;;;9.30;99.90;;;;;;5014689;28;20438;-70
2023/11/17 09:54:02;;;;;;;5.23;4.07;;;9.40;99.90;;;;;;5017099;28;20512;-71
2023/11/17 09:56:29;;;;;;;6.80;4.87;;;9.30;99.90;;;;;;5019266;28;20419;-73
2023/11/17 09:58:57;;;;;;;7.33;4.37;;;9.30;99.90;;;;;;5021322;28;20425;-73
2023/11/17 10:01:28;;;;;;;6.03;4.40;;;9.30;99.90;;;;;;5016778;28;20506;-72
2023/11/17 10:04:00;;;;;;;5.00;4.40;;;9.40;99.90;;;;;;5014344;28;20930;-72
2023/11/17 10:06:28;;;;;;;7.90;4.47;;;9.50;99.90;;;;;;5018799;28;20779;-70
2023/11/17 10:08:55;;;;;;;8.37;4.60;;;9.50;99.90;;;;;;5016212;28;20436;-70
2023/11/17 10:11:21;;;;;;;6.27;4.37;;;9.40;99.90;;;;;;5017662;28;20423;-72
2023/11/17 10:13:49;;;;;;;6.07;3.93;;;9.50;99.90;;;;;;5019990;28;20451;-73
2023/11/17 10:16:18;;;;;;;5.80;3.50;;;9.60;99.90;;;;;;5015408;28;20439;-72
2023/11/17 10:18:44;;;;;;;5.03;3.57;;;9.60;99.90;;;;;;5020744;28;20428;-71
2023/11/17 10:21:10;;;;;;;5.13;4.03;;;9.50;99.90;;;;;;5015066;28;21077;-71
2023/11/17 10:23:38;;;;;;;5.57;4.00;;;9.40;99.90;;;;;;5020948;28;20482;-71
2023/11/17 10:26:04;;;;;;;6.00;4.00;;;9.30;99.90;;;;;;5019225;28;20431;-71
2023/11/17 10:28:30;;;;;;;6.20;4.00;;;9.40;99.90;;;;;;5019388;28;20439;-71
2023/11/17 10:31:00;;;;;;;4.90;3.87;;;9.40;99.90;;;;;;5017788;28;20436;-70
2023/11/17 10:33:33;;;;;;;5.03;4.17;;;9.40;99.90;;;;;;5022257;28;20220;-70
2023/11/17 10:36:10;;;;;;;4.83;3.67;;;9.40;99.90;;;;;;5017382;28;20439;-72
2023/11/17 10:38:36;;;;;;;3.80;3.40;;;9.40;99.90;;;;;;5024300;28;20425;-71
2023/11/17 10:41:30;;;;;;;4.23;3.30;;;9.30;99.90;;;;;;5018708;28;20434;-71
2023/11/17 10:44:01;;;;;;;5.30;3.63;;;9.40;99.90;;;;;;5024520;28;21014;-73
2023/11/17 10:46:27;;;;;;;4.97;4.00;;;9.50;99.90;;;;;;5026951;28;20450;-73
2023/11/17 10:48:59;;;;;;;5.50;4.57;;;9.50;99.90;;;;;;5022568;28;20529;-72
2023/11/17 10:51:26;;;;;;;7.33;3.93;;;9.50;99.90;;;;;;5030011;28;20451;-73
2023/11/17 10:54:03;;;;;;;4.73;3.60;;;9.40;99.90;;;;;;5031019;28;20448;-74
2023/11/17 10:56:29;;;;;;;6.03;3.63;;;9.50;99.90;;;;;;5041591;28;20462;-73
2023/11/17 10:58:55;;;;;;;9.30;4.53;;;9.50;99.90;;;;;;5029388;28;20422;-72
2023/11/17 11:01:22;;;;;;;4.30;3.33;;;9.50;99.90;;;;;;5018518;28;20921;-71
2023/11/17 11:03:47;;;;;;;4.20;3.50;;;9.50;99.90;;;;;;5022092;28;20443;-72
2023/11/17 11:06:13;;;;;;;5.13;3.47;;;9.40;99.90;;;;;;5018998;28;20932;-71
2023/11/17 11:08:54;;;;;;;3.07;2.40;;;9.40;99.90;;;;;;5013325;28;20226;-71
2023/11/17 11:11:23;;;;;;;6.13;3.33;;;9.30;99.90;;;;;;5017330;28;21085;-71
2023/11/17 11:13:57;;;;;;;4.67;3.80;;;9.40;99.90;;;;;;5021743;28;20457;-71
2023/11/17 11:16:32;;;;;;;4.50;3.10;;;9.40;99.90;;;;;;5015685;28;20430;-69
2023/11/17 11:19:02;;;;;;;7.60;3.03;;;9.40;99.90;;;;;;5019071;28;20411;-72
2023/11/17 11:21:33;;;;;;;4.80;3.27;;;9.40;99.90;;;;;;5019270;28;20466;-71
2023/11/17 11:24:01;;;;;;;4.27;3.07;;;9.40;99.90;;;;;;5017194;28;20541;-70
2023/11/17 11:26:28;;;;;;;4.63;2.87;;;9.50;99.90;;;;;;5019766;28;21036;-70
2023/11/17 11:28:55;;;;;;;4.17;3.00;;;9.60;99.90;;;;;;5013498;28;20423;-71
2023/11/17 11:31:21;;;;;;;4.20;3.10;;;9.60;99.90;;;;;;5024467;28;20428;-72
2023/11/17 11:33:47;;;;;;;3.90;2.93;;;9.60;99.90;;;;;;5015112;28;21007;-71
2023/11/17 11:36:14;;;;;;;4.00;3.00;;;9.70;99.90;;;;;;5016350;28;20425;-71
2023/11/17 11:38:41;;;;;;;5.20;3.10;;;9.60;99.90;;;;;;5021497;28;20431;-71
2023/11/17 11:41:15;;;;;;;3.40;3.07;;;9.60;99.90;;;;;;5013565;28;20427;-72
2023/11/17 11:43:45;;;;;;;3.20;2.83;;;9.60;99.90;;;;;;5018446;28;20922;-72
2023/11/17 11:46:16;;;;;;;2.90;2.47;;;9.70;99.90;;;;;;5021975;28;20445;-71
2023/11/17 11:48:50;;;;;;;2.97;2.40;;;9.70;99.90;;;;;;5023364;28;20492;-72
2023/11/17 11:51:17;;;;;;;3.00;2.30;;;9.70;99.90;;;;;;5014615;28;20435;-71
2023/11/17 11:53:55;;;;;;;4.73;2.80;;;9.50;99.90;;;;;;5017143;28;20475;-72
2023/11/17 11:56:27;;;;;;;2.77;2.07;;;9.40;99.90;;;;;;5016045;28;20443;-71
2023/11/17 11:58:53;;;;;;;4.17;2.30;;;9.60;99.90;;;;;;5013311;28;20422;-72
2023/11/17 12:01:20;;;;;;;4.03;2.83;;;9.60;99.90;;;;;;5021492;28;20436;-71
2023/11/17 12:03:51;;;;;;;2.83;2.23;;;9.70;99.90;;;;;;5012858;28;20524;-72
2023/11/17 12:06:24;;;;;;;3.50;2.83;;;9.70;99.90;;;;;;5015143;28;20812;-72
2023/11/17 12:08:53;;;;;;;5.53;2.53;;;9.70;99.90;;;;;;5015845;28;20453;-72
2023/11/17 12:11:19;;;;;;;2.70;1.90;;;9.70;99.90;;;;;;5017545;28;20456;-71
2023/11/17 12:13:50;;;;;;;2.80;2.20;;;9.60;99.90;;;;;;5018197;28;20584;-71
2023/11/17 12:16:24;;;;;;;3.20;2.10;;;9.50;99.90;;;;;;5012124;28;20799;-72
2023/11/17 12:18:51;;;;;;;2.97;2.43;;;9.50;99.90;;;;;;5014547;28;20434;-72
2023/11/17 12:21:21;;;;;;;3.33;2.67;;;9.40;99.90;;;;;;5008402;28;20439;-71
2023/11/17 12:24:04;;;;;;;3.40;2.30;;;9.40;99.90;;;;;;5017695;28;20451;-71
2023/11/17 12:26:30;;;;;;;3.27;2.27;;;9.30;99.90;;;;;;5017895;28;20433;-71
2023/11/17 12:29:00;;;;;;;3.10;2.60;;;9.30;99.90;;;;;;5021791;28;20415;-71
2023/11/17 12:31:26;;;;;;;3.63;2.00;;;9.30;99.90;;;;;;5014383;28;20187;-71
2023/11/17 12:33:54;;;;;;;2.77;2.00;;;9.20;99.90;;;;;;5017341;28;20446;-71
2023/11/17 12:36:26;;;;;;;5.50;3.63;;;9.10;99.90;;;;;;5014360;28;20425;-71
2023/11/17 12:38:57;;;;;;;4.00;2.70;;;9.20;99.90;;;;;;5018020;28;20430;-71
2023/11/17 12:41:25;;;;;;;8.60;4.07;;;9.20;99.90;;;;;;5015450;28;20412;-71
2023/11/17 12:43:51;;;;;;;3.70;2.63;;;9.30;99.90;;;;;;5013628;28;20462;-71
2023/11/17 12:46:17;;;;;;;2.70;2.10;;;9.30;99.90;;;;;;5014057;28;20508;-71
2023/11/17 12:48:44;;;;;;;5.30;2.70;;;9.30;99.90;;;;;;5020362;28;20502;-71
2023/11/17 12:51:11;;;;;;;4.20;2.43;;;9.30;99.90;;;;;;5020992;28;20419;-72
2023/11/17 12:53:45;;;;;;;2.60;2.13;;;9.30;99.90;;;;;;5016660;28;21063;-70
2023/11/17 12:56:12;;;;;;;3.30;2.30;;;9.30;99.90;;;;;;5014201;28;20415;-70
2023/11/17 12:58:39;;;;;;;3.57;2.40;;;9.20;99.90;;;;;;5019686;28;20481;-70
2023/11/17 13:01:19;;;;;;;4.87;2.43;;;9.20;99.90;;;;;;5018855;28;20514;-69
2023/11/17 13:03:46;;;;;;;4.03;2.30;;;9.20;99.90;;;;;;5016919;28;20810;-69